Time;durP1;ratioP1;P1;durP2;ratioP2;P2;SDS_P1;SDS_P2;PMS_P1;PMS_P2;Temp;Humidity;BMP_temperature;BMP_pressure;BME280_temperature;BME280_humidity;BME280_pressure;Samples;Min_cycle;Max_cycle;Signal;HPM_P1;HPM_P2
2022/04/26 03:37:12;;;;;;;3.55;1.10;;;19.10;50.20;;;;;;4340592;33;20083;-67
2022/04/26 03:39:42;;;;;;;2.50;1.00;;;19.00;50.10;;;;;;4326412;33;20258;-67
2022/04/26 03:42:08;;;;;;;1.85;0.90;;;19.00;50.10;;;;;;4340435;33;20142;-67
2022/04/26 03:44:34;;;;;;;2.42;1.08;;;19.00;50.10;;;;;;4340717;33;20372;-67
2022/04/26 03:46:59;;;;;;;3.38;0.93;;;19.00;50.10;;;;;;4340552;33;20125;-67
2022/04/26 03:49:27;;;;;;;2.78;0.98;;;19.00;50.10;;;;;;4340776;33;20088;-67
2022/04/26 03:51:53;;;;;;;3.28;1.10;;;19.00;50.10;;;;;;4340479;33;20076;-67
2022/04/26 03:54:23;;;;;;;3.80;1.10;;;19.00;51.00;;;;;;4339880;33;20184;-67
2022/04/26 03:56:49;;;;;;;1.77;1.00;;;19.00;50.10;;;;;;4314758;33;20106;-67
2022/04/26 03:59:16;;;;;;;2.47;0.98;;;19.00;50.10;;;;;;4340967;33;20100;-67
2022/04/26 04:01:42;;;;;;;1.35;0.82;;;19.00;50.10;;;;;;4339833;33;20218;-67
2022/04/26 04:04:08;;;;;;;1.67;0.90;;;19.00;50.10;;;;;;4339932;33;20127;-68
2022/04/26 04:06:33;;;;;;;1.50;0.80;;;19.00;50.10;;;;;;4340152;33;20080;-67
2022/04/26 04:08:59;;;;;;;2.22;1.20;;;19.00;50.10;;;;;;4340294;33;20111;-67
2022/04/26 04:11:26;;;;;;;2.90;1.33;;;19.00;50.10;;;;;;4340299;33;20116;-67
2022/04/26 04:13:51;;;;;;;2.03;1.13;;;18.90;50.00;;;;;;4339902;33;20080;-67
2022/04/26 04:16:17;;;;;;;2.33;1.25;;;19.00;50.10;;;;;;4340205;33;20195;-67
2022/04/26 04:21:27;;;;;;;2.30;1.00;;;19.00;50.10;;;;;;4328706;33;20112;-67
2022/04/26 04:23:53;;;;;;;1.40;0.80;;;18.90;50.10;;;;;;4339866;33;20065;-67
2022/04/26 04:26:19;;;;;;;2.30;1.02;;;18.90;50.10;;;;;;4339772;33;20456;-67
2022/04/26 04:28:45;;;;;;;2.03;0.80;;;18.90;50.10;;;;;;4339787;33;20541;-67
2022/04/26 04:31:10;;;;;;;2.05;0.95;;;18.90;50.20;;;;;;4339175;33;20146;-67
2022/04/26 04:33:37;;;;;;;1.83;0.90;;;18.90;50.10;;;;;;4339775;33;20094;-66
2022/04/26 04:36:04;;;;;;;1.27;0.90;;;18.90;50.10;;;;;;4326700;33;20084;-66
2022/04/26 04:38:31;;;;;;;1.25;0.70;;;18.90;50.10;;;;;;4326075;33;20168;-67
2022/04/26 04:40:57;;;;;;;1.52;0.90;;;18.90;50.10;;;;;;4326493;33;20086;-67
2022/04/26 04:43:23;;;;;;;2.42;1.00;;;18.90;50.10;;;;;;4339259;33;20092;-67
2022/04/26 04:45:49;;;;;;;1.63;0.82;;;18.80;50.00;;;;;;4339349;33;20084;-67
2022/04/26 04:48:15;;;;;;;2.92;0.75;;;18.80;50.00;;;;;;4325999;33;20056;-67
2022/04/26 04:50:42;;;;;;;3.15;1.10;;;18.80;50.10;;;;;;4339051;33;20102;-67
2022/04/26 04:53:09;;;;;;;1.70;1.00;;;18.80;50.10;;;;;;4339624;33;20102;-67
2022/04/26 04:55:35;;;;;;;2.22;1.10;;;18.80;50.10;;;;;;4339665;33;20171;-67
2022/04/26 04:58:00;;;;;;;1.17;0.85;;;18.80;50.10;;;;;;4326140;33;20057;-67
2022/04/26 05:00:26;;;;;;;1.30;0.80;;;18.80;50.10;;;;;;4339192;33;20081;-67
2022/04/26 05:02:52;;;;;;;2.42;1.08;;;18.80;50.10;;;;;;4338596;33;20092;-67
2022/04/26 05:05:18;;;;;;;2.45;0.90;;;18.80;50.20;;;;;;4339516;33;20136;-67
2022/04/26 05:07:44;;;;;;;1.70;0.98;;;18.80;50.20;;;;;;4339540;33;20075;-67
2022/04/26 05:10:10;;;;;;;2.15;1.20;;;18.80;50.20;;;;;;4339532;33;20068;-67
2022/04/26 05:12:36;;;;;;;2.53;0.90;;;18.80;50.20;;;;;;4339161;33;20076;-67
2022/04/26 05:15:03;;;;;;;2.75;1.25;;;18.80;50.20;;;;;;4326230;33;20090;-67
2022/04/26 05:17:29;;;;;;;1.27;0.85;;;18.80;50.20;;;;;;4339248;33;20080;-67
2022/04/26 05:19:55;;;;;;;1.80;0.90;;;18.80;50.20;;;;;;4325685;33;20252;-66
2022/04/26 05:22:21;;;;;;;1.80;0.95;;;18.70;50.20;;;;;;4326028;33;20100;-67
2022/04/26 05:24:53;;;;;;;1.60;1.00;;;18.80;50.20;;;;;;4339190;33;20145;-67
2022/04/26 05:27:34;;;;;;;1.35;0.93;;;18.80;50.20;;;;;;4339551;33;20072;-67
2022/04/26 05:30:00;;;;;;;1.73;0.90;;;18.70;50.20;;;;;;4339422;33;20219;-67
2022/04/26 05:32:29;;;;;;;2.78;0.88;;;18.70;50.20;;;;;;4338971;33;20116;-67
2022/04/26 05:34:57;;;;;;;2.13;0.77;;;18.70;50.20;;;;;;4339352;33;20594;-66
2022/04/26 05:37:23;;;;;;;1.33;0.57;;;18.70;50.20;;;;;;4338861;33;20099;-67
2022/04/26 05:39:49;;;;;;;2.45;0.95;;;18.70;50.20;;;;;;4339408;33;20060;-67
2022/04/26 05:42:15;;;;;;;1.60;0.80;;;18.70;50.20;;;;;;4339343;33;20159;-67
2022/04/26 05:44:42;;;;;;;2.00;0.80;;;18.70;50.20;;;;;;4338796;33;20249;-67
2022/04/26 05:47:09;;;;;;;1.40;0.80;;;18.70;50.20;;;;;;4339031;33;20088;-67
2022/04/26 05:49:36;;;;;;;2.03;0.82;;;18.70;50.20;;;;;;4339149;33;20068;-67
2022/04/26 05:52:03;;;;;;;1.42;0.80;;;18.70;50.20;;;;;;4338904;33;20088;-67
2022/04/26 05:54:30;;;;;;;1.60;0.75;;;18.70;50.20;;;;;;4338926;33;20081;-66
2022/04/26 05:56:56;;;;;;;1.70;0.90;;;18.70;50.20;;;;;;4338952;33;20080;-66
2022/04/26 05:59:23;;;;;;;2.03;1.23;;;18.70;50.20;;;;;;4325756;33;20499;-67
2022/04/26 06:01:50;;;;;;;1.30;0.88;;;18.70;50.20;;;;;;4338553;33;20180;-67
2022/04/26 06:04:15;;;;;;;1.85;1.00;;;18.70;50.30;;;;;;4340616;33;20103;-66
2022/04/26 06:06:42;;;;;;;1.67;0.93;;;18.70;50.30;;;;;;4341999;33;20072;-66
2022/04/26 06:09:08;;;;;;;1.63;0.73;;;18.70;50.30;;;;;;4341605;33;20235;-66
2022/04/26 06:11:34;;;;;;;1.10;0.80;;;18.70;50.30;;;;;;4341838;33;20072;-67
2022/04/26 06:14:01;;;;;;;2.58;0.88;;;18.70;50.30;;;;;;4341307;33;20087;-66
2022/04/26 06:16:28;;;;;;;1.83;0.90;;;18.70;50.30;;;;;;4341903;33;20180;-66
2022/04/26 06:18:54;;;;;;;1.90;0.80;;;18.70;50.30;;;;;;4341585;33;20529;-67
2022/04/26 06:21:20;;;;;;;1.83;0.80;;;18.70;50.40;;;;;;4341337;33;20095;-67
2022/04/26 06:23:46;;;;;;;1.65;0.73;;;18.70;50.30;;;;;;4341295;33;20081;-67
2022/04/26 06:26:13;;;;;;;1.40;0.88;;;18.70;50.30;;;;;;4341536;33;20076;-67
2022/04/26 06:28:39;;;;;;;1.50;0.90;;;18.80;50.40;;;;;;4341700;33;20069;-67
2022/04/26 06:31:05;;;;;;;2.60;0.90;;;18.70;50.40;;;;;;4328130;33;20183;-67
2022/04/26 06:33:33;;;;;;;1.60;0.85;;;18.70;50.30;;;;;;4341028;33;20088;-66
2022/04/26 06:35:59;;;;;;;1.52;0.88;;;18.70;50.40;;;;;;4344596;32;20091;-67
2022/04/26 06:38:25;;;;;;;1.90;0.88;;;18.70;50.40;;;;;;4340679;32;20179;-67
2022/04/26 06:40:52;;;;;;;0.95;0.70;;;18.70;50.40;;;;;;4352307;32;20128;-66
2022/04/26 06:43:18;;;;;;;1.50;0.88;;;18.70;50.40;;;;;;4353315;32;20582;-67
2022/04/26 06:45:46;;;;;;;1.70;0.80;;;18.70;50.40;;;;;;4353184;32;20167;-67
2022/04/26 06:48:13;;;;;;;1.58;0.80;;;18.70;50.40;;;;;;4354888;32;20098;-66
2022/04/26 06:50:39;;;;;;;1.85;0.82;;;18.70;50.40;;;;;;4353070;32;20110;-66
2022/04/26 06:53:06;;;;;;;1.88;0.90;;;18.70;50.40;;;;;;4355427;32;20080;-66
2022/04/26 06:55:32;;;;;;;1.63;0.90;;;18.70;50.50;;;;;;4356127;32;20136;-66
2022/04/26 06:57:58;;;;;;;1.92;1.00;;;18.70;50.50;;;;;;4356218;32;20126;-66
2022/04/26 07:00:24;;;;;;;1.50;0.90;;;18.70;50.50;;;;;;4342222;32;20422;-66
2022/04/26 07:02:50;;;;;;;1.67;0.90;;;18.70;50.50;;;;;;4355309;32;20087;-66
2022/04/26 07:05:16;;;;;;;1.35;0.80;;;18.70;50.50;;;;;;4330106;32;20076;-67
2022/04/26 07:07:42;;;;;;;2.28;0.85;;;18.70;50.50;;;;;;4355974;32;20122;-67
2022/04/26 07:10:10;;;;;;;1.95;1.02;;;18.70;50.50;;;;;;4342449;32;20166;-67
2022/04/26 07:12:36;;;;;;;1.58;0.90;;;18.70;50.70;;;;;;4355347;32;20098;-67
2022/04/26 07:15:03;;;;;;;6.53;0.90;;;18.70;50.70;;;;;;4355689;32;20094;-66
2022/04/26 07:17:29;;;;;;;2.17;1.00;;;18.70;50.70;;;;;;4355449;32;20106;-66
2022/04/26 07:19:57;;;;;;;3.08;1.02;;;18.70;50.50;;;;;;4355737;32;20518;-66
2022/04/26 07:22:23;;;;;;;5.55;1.50;;;18.70;50.40;;;;;;4355859;32;20221;-66
2022/04/26 07:24:49;;;;;;;6.70;1.70;;;18.70;50.20;;;;;;4341895;32;20103;-66
2022/04/26 07:27:16;;;;;;;2.97;1.35;;;18.70;50.30;;;;;;4355468;32;20088;-66
2022/04/26 07:29:43;;;;;;;4.03;1.45;;;18.70;50.20;;;;;;4355413;32;20068;-66
2022/04/26 07:32:10;;;;;;;4.25;1.40;;;18.70;50.10;;;;;;4354758;32;20091;-66
2022/04/26 07:34:36;;;;;;;3.65;1.20;;;18.60;50.00;;;;;;4355365;32;20104;-66
2022/04/26 07:37:02;;;;;;;3.15;1.30;;;18.70;50.90;;;;;;4355361;32;20429;-66
2022/04/26 07:39:35;;;;;;;5.05;1.45;;;18.60;49.80;;;;;;4355030;32;20210;-67
2022/04/26 07:42:02;;;;;;;3.33;1.30;;;18.60;49.60;;;;;;4355369;32;20190;-67
2022/04/26 07:44:29;;;;;;;5.28;1.60;;;18.60;49.60;;;;;;4355464;32;20128;-67
2022/04/26 07:46:55;;;;;;;3.75;1.60;;;18.70;49.50;;;;;;4341686;32;20597;-66
2022/04/26 07:49:23;;;;;;;5.88;1.75;;;18.70;49.40;;;;;;4355164;32;20088;-66
2022/04/26 07:51:52;;;;;;;4.15;1.65;;;18.60;49.50;;;;;;4355395;32;20084;-66
2022/04/26 07:54:20;;;;;;;4.70;1.50;;;18.70;49.40;;;;;;4355224;32;20173;-67
2022/04/26 07:56:46;;;;;;;3.88;1.50;;;18.70;49.50;;;;;;4355054;32;20099;-67
2022/04/26 07:59:14;;;;;;;5.05;1.55;;;18.70;49.40;;;;;;4354856;32;20076;-66
2022/04/26 08:01:41;;;;;;;4.60;1.63;;;18.70;49.40;;;;;;4354741;32;20091;-66
2022/04/26 08:04:06;;;;;;;6.95;1.48;;;18.70;49.30;;;;;;4355019;32;20503;-67
2022/04/26 08:06:32;;;;;;;7.55;1.50;;;18.70;49.30;;;;;;4354857;32;20087;-66
2022/04/26 08:08:58;;;;;;;3.97;1.40;;;18.80;49.40;;;;;;4341491;32;20269;-66
2022/04/26 08:11:25;;;;;;;3.42;1.50;;;18.80;49.50;;;;;;4354946;32;20090;-67
2022/04/26 08:13:51;;;;;;;5.00;1.35;;;18.80;49.60;;;;;;4347833;32;20159;-67
2022/04/26 08:16:18;;;;;;;3.00;1.27;;;18.80;49.70;;;;;;4339341;33;20108;-67
2022/04/26 08:18:44;;;;;;;3.35;1.20;;;18.80;49.70;;;;;;4339219;33;20229;-67
2022/04/26 08:21:14;;;;;;;3.00;1.23;;;18.80;49.80;;;;;;4339489;33;20090;-67
2022/04/26 08:29:09;;;;;;;2.85;1.13;;;18.90;50.00;;;;;;4339672;33;20096;-67
2022/04/26 08:31:36;;;;;;;5.30;1.27;;;18.90;50.00;;;;;;4338624;33;20069;-68
2022/04/26 08:34:02;;;;;;;4.55;1.50;;;19.00;50.10;;;;;;4338384;33;20548;-67
2022/04/26 08:36:28;;;;;;;4.57;1.45;;;18.90;50.10;;;;;;4339338;33;20124;-67
2022/04/26 08:38:54;;;;;;;5.25;1.40;;;19.00;50.20;;;;;;4339197;33;20238;-67
2022/04/26 08:41:20;;;;;;;3.20;1.30;;;19.00;49.60;;;;;;4339188;33;20076;-67
2022/04/26 08:43:46;;;;;;;4.60;1.48;;;19.00;49.30;;;;;;4325758;33;20057;-66
2022/04/26 08:46:12;;;;;;;4.95;1.50;;;19.00;49.20;;;;;;4338603;33;20419;-67
2022/04/26 08:51:22;;;;;;;3.40;1.50;;;19.00;49.20;;;;;;4324718;33;20202;-67
2022/04/26 08:53:48;;;;;;;6.88;1.58;;;19.00;49.20;;;;;;4323980;33;20195;-66
2022/04/26 08:56:16;;;;;;;2.75;1.60;;;19.00;49.20;;;;;;4324593;33;20120;-66
2022/04/26 08:58:42;;;;;;;3.83;1.80;;;19.00;49.00;;;;;;4324613;33;20094;-67
2022/04/26 09:01:10;;;;;;;8.38;1.67;;;19.10;49.00;;;;;;4324500;33;20083;-67
2022/04/26 09:03:54;;;;;;;4.32;1.60;;;19.10;48.70;;;;;;4323531;33;20072;-67
2022/04/26 09:06:23;;;;;;;3.40;1.50;;;19.10;48.30;;;;;;4324289;33;20081;-67
2022/04/26 09:08:49;;;;;;;4.20;2.08;;;19.10;48.40;;;;;;4324506;33;20238;-67
2022/04/26 09:11:27;;;;;;;4.53;1.92;;;19.20;48.60;;;;;;4324467;33;20120;-67
2022/04/26 09:13:54;;;;;;;4.97;2.00;;;19.20;48.70;;;;;;4324185;33;20073;-67
2022/04/26 09:16:22;;;;;;;2.70;1.60;;;19.10;48.80;;;;;;4324344;33;20549;-67
2022/04/26 09:19:05;;;;;;;5.45;2.05;;;19.10;48.90;;;;;;4324307;33;20076;-67
2022/04/26 09:21:32;;;;;;;;;;;19.10;48.90;;;;;;4325108;33;20077;-67
2022/04/26 09:24:03;;;;;;;5.70;1.80;;;19.10;49.00;;;;;;4308216;33;23517;-67
2022/04/26 09:26:34;;;;;;;4.32;1.63;;;19.10;49.10;;;;;;4324223;33;20721;-67
2022/04/26 09:29:00;;;;;;;4.50;1.63;;;19.10;49.10;;;;;;4324229;33;20545;-67
2022/04/26 09:31:28;;;;;;;2.97;1.63;;;19.10;49.20;;;;;;4324055;33;20101;-67
2022/04/26 09:34:04;;;;;;;4.63;2.30;;;19.10;49.20;;;;;;4323874;33;20174;-67
2022/04/26 09:36:36;;;;;;;4.50;1.73;;;19.10;49.30;;;;;;4324281;33;20077;-67
2022/04/26 09:39:07;;;;;;;5.72;1.85;;;19.10;49.30;;;;;;4337903;33;20081;-68
2022/04/26 09:41:33;;;;;;;4.03;1.88;;;19.10;49.30;;;;;;4342046;33;20092;-67
2022/04/26 09:44:02;;;;;;;5.47;1.80;;;19.10;49.40;;;;;;4341632;33;20088;-67
2022/04/26 09:46:40;;;;;;;4.18;1.90;;;19.10;49.10;;;;;;4341834;33;20126;-67
2022/04/26 09:49:09;;;;;;;3.22;1.45;;;19.10;48.80;;;;;;4341864;33;20084;-67
2022/04/26 09:51:36;;;;;;;3.08;1.75;;;19.10;49.00;;;;;;4341562;33;20199;-67
2022/04/26 09:54:03;;;;;;;6.15;1.90;;;19.10;48.90;;;;;;4341346;33;20104;-68
2022/04/26 09:56:31;;;;;;;5.07;1.63;;;19.10;48.90;;;;;;4341911;33;20544;-67
2022/04/26 09:59:02;;;;;;;3.65;1.85;;;19.10;49.80;;;;;;4342156;33;20099;-67
2022/04/26 10:01:50;;;;;;;3.88;1.98;;;19.10;48.60;;;;;;4341775;33;20108;-67
2022/04/26 10:04:17;;;;;;;3.17;1.77;;;19.10;48.50;;;;;;4341504;33;20118;-67
2022/04/26 10:06:46;;;;;;;3.20;1.90;;;19.10;48.30;;;;;;4341444;33;20226;-67
2022/04/26 10:09:13;;;;;;;3.33;1.80;;;19.10;48.00;;;;;;4327682;33;20093;-67
2022/04/26 10:11:39;;;;;;;4.30;1.85;;;19.20;47.90;;;;;;4341060;33;20570;-67
2022/04/26 10:14:07;;;;;;;3.88;1.65;;;19.20;47.60;;;;;;4327689;33;20518;-67
2022/04/26 10:16:33;;;;;;;4.40;1.90;;;19.20;47.30;;;;;;4341424;33;20080;-67
2022/04/26 10:19:13;;;;;;;5.15;1.85;;;19.30;47.20;;;;;;4328323;33;20091;-67
2022/04/26 10:21:38;;;;;;;4.65;1.63;;;19.30;46.90;;;;;;4341902;33;20565;-67
2022/04/26 10:24:14;;;;;;;4.00;1.73;;;19.30;46.80;;;;;;4341786;33;20548;-67
2022/04/26 10:26:41;;;;;;;4.65;1.85;;;19.40;46.60;;;;;;4341700;33;20096;-67
2022/04/26 10:29:06;;;;;;;3.92;1.80;;;19.40;46.60;;;;;;4341455;33;20076;-67
2022/04/26 10:31:42;;;;;;;5.65;2.15;;;19.40;46.60;;;;;;4341231;33;20244;-67
2022/04/26 10:34:26;;;;;;;4.97;1.90;;;19.40;46.30;;;;;;4341050;33;20495;-67
2022/04/26 10:36:54;;;;;;;3.42;1.90;;;19.40;46.20;;;;;;4340658;33;20534;-67
2022/04/26 10:39:35;;;;;;;6.60;1.90;;;19.40;46.20;;;;;;4340812;33;20076;-67
2022/04/26 10:42:23;;;;;;;4.95;1.77;;;19.40;45.90;;;;;;4341038;33;20403;-66
2022/04/26 10:44:49;;;;;;;4.00;1.60;;;19.40;46.10;;;;;;4339753;33;20192;-67
2022/04/26 10:47:20;;;;;;;6.53;1.77;;;19.40;46.40;;;;;;4327442;33;20132;-67
2022/04/26 10:49:51;;;;;;;5.03;1.80;;;19.40;46.20;;;;;;4340747;33;20080;-66
2022/04/26 10:52:23;;;;;;;5.05;1.77;;;19.40;46.00;;;;;;4341277;33;20088;-72
2022/04/26 10:54:51;;;;;;;5.65;1.80;;;19.40;45.90;;;;;;4341212;33;20409;-66
2022/04/26 10:57:19;;;;;;;4.57;2.00;;;19.40;45.80;;;;;;4341081;33;20465;-66
2022/04/26 10:59:54;;;;;;;5.88;1.60;;;19.40;45.70;;;;;;4341127;33;20197;-66
2022/04/26 11:02:21;;;;;;;2.97;1.50;;;19.40;45.90;;;;;;4341130;33;20234;-66
2022/04/26 11:04:57;;;;;;;2.83;1.63;;;19.40;45.70;;;;;;4340721;33;20183;-65
2022/04/26 11:07:26;;;;;;;6.00;1.85;;;19.40;45.40;;;;;;4341301;33;20083;-66
2022/04/26 11:09:54;;;;;;;3.70;1.83;;;19.40;45.30;;;;;;4340956;33;20088;-65
2022/04/26 11:12:27;;;;;;;5.82;1.88;;;19.50;45.10;;;;;;4341107;33;20661;-65
2022/04/26 11:14:59;;;;;;;5.10;1.80;;;19.50;44.80;;;;;;4340660;33;20179;-65
2022/04/26 11:17:26;;;;;;;4.35;1.73;;;19.50;44.80;;;;;;4339870;33;20172;-65
2022/04/26 11:19:53;;;;;;;5.03;1.70;;;19.50;44.70;;;;;;4339711;33;20239;-66
2022/04/26 11:22:20;;;;;;;2.33;1.48;;;19.50;44.70;;;;;;4339729;33;20210;-65
2022/04/26 11:30:42;;;;;;;6.00;1.83;;;19.60;44.70;;;;;;4337744;33;20304;-67
2022/04/26 11:33:11;;;;;;;8.68;1.73;;;19.60;44.80;;;;;;4339590;33;20120;-66
2022/04/26 11:35:39;;;;;;;3.17;1.70;;;19.50;44.90;;;;;;4340251;33;20187;-66
2022/04/26 11:38:10;;;;;;;2.85;1.90;;;19.60;45.00;;;;;;4339835;33;20091;-65
2022/04/26 11:40:38;;;;;;;4.78;1.77;;;19.50;45.10;;;;;;4339677;33;20084;-66
2022/04/26 11:43:12;;;;;;;4.75;1.50;;;19.50;45.20;;;;;;4340948;33;20288;-67
2022/04/26 11:45:39;;;;;;;;;;;19.50;45.50;;;;;;4341028;33;20550;-66
2022/04/26 11:48:08;;;;;;;3.17;1.60;;;19.40;45.70;;;;;;4326426;33;19969;-66
2022/04/26 11:50:34;;;;;;;2.85;1.65;;;19.40;45.90;;;;;;4339805;33;20217;-71
2022/04/26 11:53:06;;;;;;;3.25;1.90;;;19.40;46.00;;;;;;4340051;33;20127;-66
2022/04/26 11:55:41;;;;;;;3.10;1.70;;;19.40;46.20;;;;;;4339289;33;20104;-66
2022/04/26 11:58:13;;;;;;;3.00;1.70;;;19.40;46.30;;;;;;4338967;33;20131;-66
2022/04/26 12:01:02;;;;;;;4.13;1.83;;;19.40;46.40;;;;;;4339622;33;20474;-66
2022/04/26 12:03:38;;;;;;;4.15;1.40;;;19.40;46.50;;;;;;4339805;33;20610;-66
2022/04/26 12:06:06;;;;;;;3.00;1.80;;;19.40;46.60;;;;;;4340273;33;20089;-66
2022/04/26 12:08:39;;;;;;;3.03;1.63;;;19.30;46.70;;;;;;4339904;33;20202;-66
2022/04/26 12:11:12;;;;;;;2.47;1.23;;;19.30;46.80;;;;;;4340153;33;20101;-66
2022/04/26 12:13:38;;;;;;;3.17;1.60;;;19.30;46.80;;;;;;4339727;33;20097;-66
2022/04/26 12:16:19;;;;;;;7.55;1.35;;;19.30;46.90;;;;;;4326867;33;20073;-66
2022/04/26 12:19:04;;;;;;;3.63;1.60;;;19.30;47.00;;;;;;4340587;33;20102;-66
2022/04/26 12:21:52;;;;;;;2.25;1.38;;;19.30;47.10;;;;;;4339982;33;20419;-66
2022/04/26 12:24:21;;;;;;;4.13;1.60;;;19.30;47.20;;;;;;4340230;33;20164;-66
2022/04/26 12:26:52;;;;;;;2.63;1.50;;;19.30;47.20;;;;;;4339589;33;20147;-66
2022/04/26 12:29:18;;;;;;;3.70;1.70;;;19.30;47.30;;;;;;4339816;33;20492;-66
2022/04/26 12:31:47;;;;;;;3.75;1.52;;;19.30;47.40;;;;;;4339777;33;20607;-66
2022/04/26 12:34:22;;;;;;;3.33;1.73;;;19.30;47.50;;;;;;4339619;33;20132;-67
2022/04/26 12:36:59;;;;;;;2.22;1.48;;;19.30;47.50;;;;;;4339802;33;20068;-66
2022/04/26 12:39:42;;;;;;;4.60;1.52;;;19.20;47.60;;;;;;4339777;33;20207;-66
2022/04/26 12:42:09;;;;;;;3.75;1.42;;;19.20;47.60;;;;;;4339941;33;20167;-66
2022/04/26 12:44:39;;;;;;;2.80;1.55;;;19.20;47.70;;;;;;4339383;33;20095;-66
2022/04/26 12:52:42;;;;;;;3.38;1.45;;;19.20;47.90;;;;;;4339681;33;20087;-66
2022/04/26 12:55:08;;;;;;;3.13;1.40;;;19.20;47.90;;;;;;4339279;33;20076;-66
2022/04/26 12:57:51;;;;;;;2.78;1.45;;;19.20;47.90;;;;;;4339725;33;20068;-66
2022/04/26 13:00:20;;;;;;;2.55;1.38;;;19.20;48.00;;;;;;4339507;33;20649;-66
2022/04/26 13:02:47;;;;;;;2.85;1.48;;;19.20;48.00;;;;;;4339015;33;20303;-66
2022/04/26 13:05:13;;;;;;;3.30;1.48;;;19.20;48.10;;;;;;4339420;33;20084;-66
2022/04/26 13:07:39;;;;;;;2.53;1.35;;;19.20;48.10;;;;;;4339317;33;20139;-66
2022/04/26 13:10:05;;;;;;;3.92;1.52;;;19.20;48.10;;;;;;4339291;33;20069;-67
2022/04/26 13:12:31;;;;;;;3.00;1.50;;;19.20;48.20;;;;;;4338816;33;20095;-67
2022/04/26 13:14:59;;;;;;;3.00;1.60;;;19.20;48.20;;;;;;4339492;33;20072;-67
2022/04/26 13:17:25;;;;;;;3.83;1.40;;;19.20;49.10;;;;;;4339357;33;20168;-67
2022/04/26 13:19:51;;;;;;;3.35;1.40;;;19.20;48.20;;;;;;4339265;33;20088;-67
2022/04/26 13:22:17;;;;;;;4.03;1.52;;;19.20;48.20;;;;;;4339266;33;20535;-66
2022/04/26 13:24:43;;;;;;;2.05;1.30;;;19.20;48.20;;;;;;4338991;33;20550;-66
2022/04/26 13:27:09;;;;;;;2.75;1.58;;;19.20;48.20;;;;;;4339438;33;20284;-66
2022/04/26 13:29:34;;;;;;;3.40;1.40;;;19.30;48.30;;;;;;4338868;33;20411;-66
2022/04/26 13:32:02;;;;;;;2.78;1.20;;;19.30;48.30;;;;;;4338855;33;20068;-67
2022/04/26 13:34:28;;;;;;;2.42;1.10;;;19.30;48.30;;;;;;4339153;33;20088;-66
2022/04/26 13:36:54;;;;;;;1.65;0.98;;;19.30;48.30;;;;;;4339351;33;20100;-66
2022/04/26 13:39:21;;;;;;;1.77;1.30;;;19.30;48.30;;;;;;4339106;33;20499;-66
2022/04/26 13:41:52;;;;;;;2.53;1.50;;;19.30;48.30;;;;;;4338892;33;20493;-70
2022/04/26 13:44:21;;;;;;;2.08;1.48;;;19.30;48.40;;;;;;4338989;33;20078;-68
2022/04/26 13:46:47;;;;;;;4.68;1.45;;;19.30;48.20;;;;;;4338835;33;20084;-70
2022/04/26 13:49:13;;;;;;;3.70;1.50;;;19.30;47.90;;;;;;4339319;33;20072;-68
2022/04/26 13:51:39;;;;;;;2.75;1.50;;;19.40;47.70;;;;;;4339049;33;20195;-67
2022/04/26 13:54:05;;;;;;;5.40;1.50;;;19.40;47.40;;;;;;4339021;33;20099;-66
2022/04/26 13:56:31;;;;;;;4.05;1.77;;;19.40;47.20;;;;;;4325759;33;20086;-66
2022/04/26 13:58:57;;;;;;;6.20;1.77;;;19.40;47.20;;;;;;4339002;33;20095;-66
2022/04/26 14:01:23;;;;;;;3.60;1.83;;;19.40;47.20;;;;;;4338718;33;20530;-66
2022/04/26 14:03:50;;;;;;;5.78;1.85;;;19.40;47.00;;;;;;4338570;33;20345;-66
2022/04/26 14:06:21;;;;;;;3.80;1.40;;;19.50;47.00;;;;;;4339224;33;20526;-66
2022/04/26 14:08:48;;;;;;;7.82;1.77;;;19.50;47.00;;;;;;4339285;33;20135;-66
2022/04/26 14:11:18;;;;;;;7.47;1.58;;;19.50;47.00;;;;;;4338656;33;20147;-66
2022/04/26 14:21:58;;;;;;;4.20;1.30;;;19.60;47.00;;;;;;4339123;33;20518;-66
2022/04/26 14:24:24;;;;;;;4.32;1.70;;;19.60;47.00;;;;;;4339150;33;20124;-67
2022/04/26 14:26:51;;;;;;;6.07;1.63;;;19.60;47.20;;;;;;4341557;33;20522;-66
2022/04/26 14:29:17;;;;;;;5.13;1.73;;;19.60;47.10;;;;;;4341719;33;20076;-66
2022/04/26 14:31:43;;;;;;;4.32;1.95;;;19.60;47.10;;;;;;4341273;33;20538;-66
2022/04/26 14:34:10;;;;;;;4.03;1.73;;;19.60;47.10;;;;;;4340958;33;20138;-66
2022/04/26 14:36:37;;;;;;;4.35;1.60;;;19.60;47.10;;;;;;4341752;33;20095;-66
2022/04/26 14:39:03;;;;;;;3.55;1.85;;;19.60;47.10;;;;;;4341669;33;20080;-66
2022/04/26 14:41:29;;;;;;;3.30;1.58;;;19.60;47.10;;;;;;4341645;33;20126;-68
2022/04/26 14:43:55;;;;;;;4.40;1.45;;;19.60;47.10;;;;;;4340660;33;20069;-66
2022/04/26 14:46:21;;;;;;;3.75;1.63;;;19.60;47.10;;;;;;4341669;33;20389;-66
2022/04/26 14:48:47;;;;;;;5.53;1.67;;;19.60;47.00;;;;;;4341041;33;20200;-66
2022/04/26 14:51:13;;;;;;;4.80;1.58;;;19.60;46.90;;;;;;4341276;33;20076;-66
2022/04/26 14:53:39;;;;;;;4.20;1.60;;;19.70;46.80;;;;;;4341176;33;20214;-66
2022/04/26 14:56:06;;;;;;;5.63;1.50;;;19.70;46.70;;;;;;4340941;33;20103;-67
2022/04/26 14:58:33;;;;;;;8.05;1.85;;;19.70;46.50;;;;;;4341150;33;20088;-66
2022/04/26 15:00:59;;;;;;;7.60;1.73;;;19.70;46.30;;;;;;4341388;33;20116;-66
2022/04/26 15:03:27;;;;;;;3.47;1.75;;;19.70;46.30;;;;;;4340444;33;20088;-67
2022/04/26 15:05:55;;;;;;;4.72;1.77;;;19.70;46.10;;;;;;4341252;33;20068;-66
2022/04/26 15:11:05;;;;;;;5.90;1.98;;;19.70;45.90;;;;;;4329921;33;20095;-66
2022/04/26 15:19:00;;;;;;;7.25;1.90;;;19.70;45.30;;;;;;4341220;33;20116;-66
2022/04/26 15:21:25;;;;;;;7.63;1.90;;;19.70;45.20;;;;;;4340539;33;20080;-66
2022/04/26 15:23:53;;;;;;;11.07;1.92;;;19.60;45.00;;;;;;4340837;33;20091;-66
2022/04/26 15:26:21;;;;;;;14.25;2.53;;;19.70;44.90;;;;;;4317169;33;23916;-66
2022/04/26 15:28:46;;;;;;;14.38;2.25;;;19.70;44.70;;;;;;4340645;33;20159;-66
2022/04/26 15:31:16;;;;;;;6.15;2.05;;;19.70;44.50;;;;;;4340193;33;20511;-67
2022/04/26 15:33:43;;;;;;;7.40;2.00;;;19.70;44.50;;;;;;4339646;33;20091;-68
2022/04/26 15:36:09;;;;;;;6.93;1.92;;;19.70;44.30;;;;;;4339934;33;20568;-68
2022/04/26 15:38:35;;;;;;;4.25;1.70;;;19.70;44.10;;;;;;4339492;33;20518;-67
2022/04/26 15:41:02;;;;;;;4.75;1.73;;;19.80;44.00;;;;;;4339503;33;20077;-67
2022/04/26 15:43:29;;;;;;;3.97;1.83;;;19.80;44.00;;;;;;4326124;33;20099;-67
2022/04/26 15:45:56;;;;;;;4.47;1.65;;;19.80;43.80;;;;;;4338961;33;20104;-68
2022/04/26 15:48:23;;;;;;;4.22;1.50;;;19.80;43.70;;;;;;4350150;32;20135;-67
2022/04/26 15:50:48;;;;;;;5.70;1.75;;;19.80;43.60;;;;;;4353975;32;20418;-67
2022/04/26 15:53:15;;;;;;;2.85;1.60;;;19.80;43.50;;;;;;4353840;32;20076;-67
2022/04/26 15:55:41;;;;;;;7.15;1.75;;;19.80;43.40;;;;;;4353294;32;20091;-68
2022/04/26 15:58:08;;;;;;;5.82;1.92;;;19.80;44.30;;;;;;4353870;32;20072;-67
2022/04/26 16:00:34;;;;;;;4.22;1.75;;;19.80;43.20;;;;;;4339193;32;20090;-67
2022/04/26 16:03:01;;;;;;;4.72;1.60;;;19.80;43.00;;;;;;4339293;33;20182;-67
2022/04/26 16:05:29;;;;;;;6.13;1.60;;;19.80;43.00;;;;;;4339624;33;20095;-67
2022/04/26 16:07:54;;;;;;;4.82;1.50;;;19.70;42.90;;;;;;4339973;33;20107;-67
2022/04/26 16:21:25;;;;;;;3.47;1.70;;;19.80;42.50;;;;;;4339851;33;20175;-68
2022/04/26 16:23:53;;;;;;;4.05;1.42;;;19.70;42.50;;;;;;4339483;33;20072;-67
2022/04/26 16:26:20;;;;;;;6.40;1.52;;;19.70;42.50;;;;;;4323136;32;27072;-68
2022/04/26 16:28:47;;;;;;;4.07;1.77;;;19.70;42.60;;;;;;4339674;33;20072;-67
2022/04/26 16:31:13;;;;;;;4.95;1.65;;;19.70;42.60;;;;;;4339574;33;20103;-67
2022/04/26 16:33:39;;;;;;;5.80;1.80;;;19.70;42.60;;;;;;4339750;33;20136;-66
2022/04/26 16:36:07;;;;;;;7.25;2.00;;;19.70;42.70;;;;;;4339691;33;20077;-69
2022/04/26 16:38:36;;;;;;;3.75;1.60;;;19.70;42.60;;;;;;4339988;33;20093;-70
2022/04/26 16:41:04;;;;;;;4.03;1.38;;;19.70;42.60;;;;;;4339421;33;20146;-70
2022/04/26 16:43:32;;;;;;;3.88;1.48;;;19.70;42.60;;;;;;4326687;33;20135;-69
2022/04/26 16:45:58;;;;;;;7.32;1.88;;;19.70;42.70;;;;;;4339455;33;20106;-68
2022/04/26 16:48:24;;;;;;;4.07;1.63;;;19.70;42.70;;;;;;4338657;33;20403;-68
2022/04/26 16:50:50;;;;;;;3.13;1.67;;;19.70;42.70;;;;;;4339877;33;20200;-68
2022/04/26 16:53:15;;;;;;;5.03;1.65;;;19.70;42.70;;;;;;4325946;33;20095;-67
2022/04/26 16:55:41;;;;;;;4.93;1.77;;;19.70;42.90;;;;;;4339320;33;20076;-68
2022/04/26 16:58:08;;;;;;;5.95;1.90;;;19.60;42.90;;;;;;4339009;33;20504;-68
2022/04/26 17:00:34;;;;;;;4.90;1.70;;;19.60;43.00;;;;;;4338935;33;20614;-68
2022/04/26 17:03:00;;;;;;;4.15;1.95;;;19.60;43.10;;;;;;4338331;33;20139;-68
2022/04/26 17:05:29;;;;;;;5.32;1.85;;;19.60;43.30;;;;;;4338800;33;20088;-68
2022/04/26 17:07:56;;;;;;;3.70;1.45;;;19.60;43.30;;;;;;4324960;33;20088;-69
2022/04/26 17:10:23;;;;;;;6.03;1.73;;;19.60;43.40;;;;;;4336624;33;20679;-68
2022/04/26 17:12:50;;;;;;;4.72;1.80;;;19.60;43.50;;;;;;4338361;33;20515;-68
2022/04/26 17:15:17;;;;;;;6.43;1.73;;;19.60;44.40;;;;;;4338328;33;20400;-68
2022/04/26 17:17:44;;;;;;;6.40;2.22;;;19.60;43.60;;;;;;4339521;33;20076;-72